Varma — OGOE — position and weather

sailwx.info

Track history (hours):
 
Tides and Currents Weather Stations Pressure Air Temp Water Temp Dewpoint Dewpoint Depression Visibility Wind Speed Wind Dir Waves Ship Positions

Varma

Last reported at 2018-Mar-28 13:18 UTC. Time now 2018-Jun-19 02:37 UTC.
Position N 59°47' E 022°56'.
Warning: this ship's position is months out of date.

Length 48 m; draft 4.2 m.

Type: Tug. MMSI: 230301000.

Date/timePositionNaut miles runAvg speedWind from/ knotsBaromVisibWave heightAir tempDewpointWater temp
2018-Mar-28 13:18N 59°47' E 022°56'3 9.2
2018-Mar-28 12:59N 59°47' E 023°02'4 9.1
2018-Mar-28 12:30N 59°48' E 023°11'4 8.0
2018-Mar-28 12:00N 59°50' E 023°17'4 7.7
2018-Mar-28 11:31N 59°54' E 023°18'2 4.7
2018-Mar-28 11:01N 59°56' E 023°21'4 8.4
2018-Mar-28 10:30N 59°53' E 023°15'4 7.8
2018-Mar-28 10:01N 59°55' E 023°21'2 3.7
2018-Mar-28 09:30N 59°57' E 023°23'3 6.3
2018-Mar-28 09:00N 59°59' E 023°27'5 9.3
2018-Mar-28 08:31N 60°04' E 023°31'2 4.9
2018-Mar-28 08:00N 60°06' E 023°33'2 4.4
2018-Mar-28 07:30N 60°04' E 023°31'5 8.6
2018-Mar-28 06:58N 59°60' E 023°27'3 7.0
2018-Mar-28 06:31N 60°03' E 023°30'3 6.4
2018-Mar-28 05:59N 60°06' E 023°33'0 0.1
2018-Mar-28 05:29N 60°05' E 023°33'1 0.8
2018-Mar-28 04:43N 60°05' E 023°32'0 0.0
2018-Mar-28 04:22N 60°05' E 023°32'0 0.0
2018-Mar-28 03:58N 60°05' E 023°32'0 0.0
2018-Mar-28 03:28N 60°05' E 023°32'0 0.0
2018-Mar-28 02:58N 60°05' E 023°32'0 0.0
2018-Mar-28 02:28N 60°05' E 023°32'0 0.0
2018-Mar-28 01:55N 60°05' E 023°32'0 0.0
2018-Mar-28 01:16N 60°05' E 023°32'0 0.0
2018-Mar-28 00:58N 60°05' E 023°32'0 0.0
2018-Mar-28 00:22N 60°05' E 023°32'0 0.0
2018-Mar-27 23:58N 60°05' E 023°32'0 0.0
2018-Mar-27 23:28N 60°05' E 023°32'1 0.9
2018-Mar-27 22:54N 60°05' E 023°33'0 0.3
2018-Mar-27 22:28N 60°05' E 023°33'2 3.7
2018-Mar-27 21:58N 60°04' E 023°31'3 7.1
2018-Mar-27 21:30N 60°01' E 023°28'1 2.4
2018-Mar-27 20:59N 59°60' E 023°27'4 7.4
2018-Mar-27 20:30N 60°03' E 023°30'2 2.8
2018-Mar-27 19:54N 60°05' E 023°32'3 6.7
2018-Mar-27 19:30N 60°02' E 023°29'3 6.9
2018-Mar-27 19:00N 59°59' E 023°26'4 7.0
2018-Mar-27 18:30N 59°56' E 023°23'4 7.3
2018-Mar-27 18:00N 59°54' E 023°17'4 7.6
2018-Mar-27 17:30N 59°50' E 023°17'4 8.7
2018-Mar-27 17:00N 59°48' E 023°10'  
2018-Mar-22 13:08N 59°47' E 022°56'1 9.0
2018-Mar-22 13:00N 59°47' E 022°58'4 8.8
2018-Mar-22 12:30N 59°48' E 023°07'4 7.9
2018-Mar-22 12:00N 59°49' E 023°14'4 7.5
2018-Mar-22 11:30N 59°52' E 023°15'3 4.9
2018-Mar-22 10:59N 59°54' E 023°19'4 8.6
2018-Mar-22 10:30N 59°57' E 023°24'4 7.3
2018-Mar-22 09:59N 60°01' E 023°28'3 6.8
2018-Mar-22 09:30N 60°03' E 023°31'1 1.8
2018-Mar-22 08:56N 60°04' E 023°32'3 7.6
2018-Mar-22 08:30N 60°01' E 023°29'2 3.9
2018-Mar-22 08:00N 59°60' E 023°27'3 6.5
2018-Mar-22 07:30N 60°03' E 023°30'3 6.0
2018-Mar-22 06:56N 60°05' E 023°33'0 0.4
2018-Mar-22 06:23N 60°06' E 023°33'0 0.0
2018-Mar-22 05:52N 60°06' E 023°33'0 0.0
2018-Mar-22 05:28N 60°06' E 023°33'0 0.0
2018-Mar-22 04:55N 60°06' E 023°33'0 0.0
2018-Mar-22 04:25N 60°06' E 023°33'0 0.0
2018-Mar-22 03:58N 60°06' E 023°33'0 0.0
2018-Mar-22 03:07N 60°06' E 023°33'0 0.0
2018-Mar-22 02:43N 60°06' E 023°33'0 0.0
2018-Mar-22 02:25N 60°06' E 023°33'0 0.0
2018-Mar-22 01:55N 60°06' E 023°33'0 0.0
2018-Mar-22 01:19N 60°06' E 023°33'0 0.0
2018-Mar-22 00:49N 60°06' E 023°33'0 0.0
2018-Mar-22 00:30N 60°06' E 023°33'1 2.3
2018-Mar-21 23:57N 60°05' E 023°32'3 7.2
2018-Mar-21 23:31N 60°02' E 023°29'4 7.5
2018-Mar-21 23:00N 59°59' E 023°25'4 8.5
2018-Mar-21 22:30N 59°55' E 023°20'2 4.5
2018-Mar-21 22:00N 59°54' E 023°17'4 7.3
2018-Mar-21 21:30N 59°56' E 023°22'3 5.7
2018-Mar-21 21:01N 59°59' E 023°25'4 8.0
2018-Mar-21 20:30N 59°55' E 023°20'3 7.0
2018-Mar-21 20:00N 59°53' E 023°16'4 7.8
2018-Mar-21 19:30N 59°49' E 023°16'5 9.3
2018-Mar-21 19:00N 59°48' E 023°07'  
Track history (hours):
 
Tides and Currents Weather Stations Pressure Air Temp Water Temp Dewpoint Dewpoint Depression Visibility Wind Speed Wind Dir Waves Ship Positions

Varma

Last reported at 2018-Mar-28 13:18 UTC. Time now 2018-Jun-19 02:37 UTC.
Position N 59°47' E 022°56'.
Warning: this ship's position is months out of date.

Length 48 m; draft 4.2 m.

Type: Tug. MMSI: 230301000.

Date/timePositionNaut miles runAvg speedWind from/ knotsBaromVisibWave heightAir tempDewpointWater temp
2018-Mar-28 13:18N 59°47' E 022°56'3 9.2
2018-Mar-28 12:59N 59°47' E 023°02'4 9.1
2018-Mar-28 12:30N 59°48' E 023°11'4 8.0
2018-Mar-28 12:00N 59°50' E 023°17'4 7.7
2018-Mar-28 11:31N 59°54' E 023°18'2 4.7
2018-Mar-28 11:01N 59°56' E 023°21'4 8.4
2018-Mar-28 10:30N 59°53' E 023°15'4 7.8
2018-Mar-28 10:01N 59°55' E 023°21'2 3.7
2018-Mar-28 09:30N 59°57' E 023°23'3 6.3
2018-Mar-28 09:00N 59°59' E 023°27'5 9.3
2018-Mar-28 08:31N 60°04' E 023°31'2 4.9
2018-Mar-28 08:00N 60°06' E 023°33'2 4.4
2018-Mar-28 07:30N 60°04' E 023°31'5 8.6
2018-Mar-28 06:58N 59°60' E 023°27'3 7.0
2018-Mar-28 06:31N 60°03' E 023°30'3 6.4
2018-Mar-28 05:59N 60°06' E 023°33'0 0.1
2018-Mar-28 05:29N 60°05' E 023°33'1 0.8
2018-Mar-28 04:43N 60°05' E 023°32'0 0.0
2018-Mar-28 04:22N 60°05' E 023°32'0 0.0
2018-Mar-28 03:58N 60°05' E 023°32'0 0.0
2018-Mar-28 03:28N 60°05' E 023°32'0 0.0
2018-Mar-28 02:58N 60°05' E 023°32'0 0.0
2018-Mar-28 02:28N 60°05' E 023°32'0 0.0
2018-Mar-28 01:55N 60°05' E 023°32'0 0.0
2018-Mar-28 01:16N 60°05' E 023°32'0 0.0
2018-Mar-28 00:58N 60°05' E 023°32'0 0.0
2018-Mar-28 00:22N 60°05' E 023°32'0 0.0
2018-Mar-27 23:58N 60°05' E 023°32'0 0.0
2018-Mar-27 23:28N 60°05' E 023°32'1 0.9
2018-Mar-27 22:54N 60°05' E 023°33'0 0.3
2018-Mar-27 22:28N 60°05' E 023°33'2 3.7
2018-Mar-27 21:58N 60°04' E 023°31'3 7.1
2018-Mar-27 21:30N 60°01' E 023°28'1 2.4
2018-Mar-27 20:59N 59°60' E 023°27'4 7.4
2018-Mar-27 20:30N 60°03' E 023°30'2 2.8
2018-Mar-27 19:54N 60°05' E 023°32'3 6.7
2018-Mar-27 19:30N 60°02' E 023°29'3 6.9
2018-Mar-27 19:00N 59°59' E 023°26'4 7.0
2018-Mar-27 18:30N 59°56' E 023°23'4 7.3
2018-Mar-27 18:00N 59°54' E 023°17'4 7.6
2018-Mar-27 17:30N 59°50' E 023°17'4 8.7
2018-Mar-27 17:00N 59°48' E 023°10'  
2018-Mar-22 13:08N 59°47' E 022°56'1 9.0
2018-Mar-22 13:00N 59°47' E 022°58'4 8.8
2018-Mar-22 12:30N 59°48' E 023°07'4 7.9
2018-Mar-22 12:00N 59°49' E 023°14'4 7.5
2018-Mar-22 11:30N 59°52' E 023°15'3 4.9
2018-Mar-22 10:59N 59°54' E 023°19'4 8.6
2018-Mar-22 10:30N 59°57' E 023°24'4 7.3
2018-Mar-22 09:59N 60°01' E 023°28'3 6.8
2018-Mar-22 09:30N 60°03' E 023°31'1 1.8
2018-Mar-22 08:56N 60°04' E 023°32'3 7.6
2018-Mar-22 08:30N 60°01' E 023°29'2 3.9
2018-Mar-22 08:00N 59°60' E 023°27'3 6.5
2018-Mar-22 07:30N 60°03' E 023°30'3 6.0
2018-Mar-22 06:56N 60°05' E 023°33'0 0.4
2018-Mar-22 06:23N 60°06' E 023°33'0 0.0
2018-Mar-22 05:52N 60°06' E 023°33'0 0.0
2018-Mar-22 05:28N 60°06' E 023°33'0 0.0
2018-Mar-22 04:55N 60°06' E 023°33'0 0.0
2018-Mar-22 04:25N 60°06' E 023°33'0 0.0
2018-Mar-22 03:58N 60°06' E 023°33'0 0.0
2018-Mar-22 03:07N 60°06' E 023°33'0 0.0
2018-Mar-22 02:43N 60°06' E 023°33'0 0.0
2018-Mar-22 02:25N 60°06' E 023°33'0 0.0
2018-Mar-22 01:55N 60°06' E 023°33'0 0.0
2018-Mar-22 01:19N 60°06' E 023°33'0 0.0
2018-Mar-22 00:49N 60°06' E 023°33'0 0.0
2018-Mar-22 00:30N 60°06' E 023°33'1 2.3
2018-Mar-21 23:57N 60°05' E 023°32'3 7.2
2018-Mar-21 23:31N 60°02' E 023°29'4 7.5
2018-Mar-21 23:00N 59°59' E 023°25'4 8.5
2018-Mar-21 22:30N 59°55' E 023°20'2 4.5
2018-Mar-21 22:00N 59°54' E 023°17'4 7.3
2018-Mar-21 21:30N 59°56' E 023°22'3 5.7
2018-Mar-21 21:01N 59°59' E 023°25'4 8.0
2018-Mar-21 20:30N 59°55' E 023°20'3 7.0
2018-Mar-21 20:00N 59°53' E 023°16'4 7.8
2018-Mar-21 19:30N 59°49' E 023°16'5 9.3
2018-Mar-21 19:00N 59°48' E 023°07'  

Dump ship's entire track history